SPEO2: Bird Creek, Sperry, OK

Data processed at Tue May 21 2019 23:50


All information presented herein is the property of the government of the United States of America and may be revised or deleted at any time without prior notice.
Dissemination of this information without the expressed written consent of the Public Affairs Office, Tulsa District U.S. Army Corps of Engineers is strictly prohibited.
These data are gathered electronically and, as presented, have not undergone any form of quality control. These data are not guaranteed to be valid or correct.
Go to home page.
Go to station list.
Go to home page.

Upstream stations:

Downstream station:
Previous Day
Next Day
Current Day
    
SHEF ID:       SPEO2     Bird Creek near Sperry, OK
STATION TYPE:  
Regulating: Stage =    21.00, Flow =    11249

               PRECIP     STAGE  STAGE(2)  RIV-FLOW  WTR-TEMP   DIS-OXY        PH   CONDUCT  BAT-LOAD
                   in        ft        ft       cfs         F      mg/l        su   umho/cm      volt
              Ccp-Rev   Ccp-Rev   Ccp-Rev   Ccp-Rev   Ccp-Rev   Ccp-Rev   Ccp-Rev   Ccp-Rev   Ccp-Rev
(US/Central)
05/21 00:00      0.04     17.94     17.78      8862     64.74      7.36      7.76       180     12.33
05/21 01:00      0.33     20.12     19.98     10516     64.24      7.35      7.68       155     12.33
05/21 02:00      0.28     21.95     21.78     12068     63.86      7.38      7.57       132     12.25
05/21 03:00      0.09     23.38     23.18     13500     63.50      7.44      7.50       121     12.25
05/21 04:00      0.02     24.49     24.16     14656     63.25      7.41      7.49       117     12.25
05/21 05:00      0.15     25.34     25.14     15827     62.89      7.29      7.63       117     12.25
05/21 06:00      0.00     26.01     25.76     16864     62.58      7.21      7.67       111     12.25
05/21 07:00      1.19     26.66     26.39     17906     62.33      7.23      7.58       104     12.25
05/21 08:00      0.13     27.19     26.92     18783     62.17      7.24      7.49       100     12.25
05/21 09:00      0.16     27.60     27.39     19800     62.02      7.20      7.43        97     12.25
05/21 10:00      0.05     27.91     27.68     20647     61.92      7.13      7.40        94     12.25
05/21 11:00      0.01     28.18     27.81     21406     61.84      7.03      7.35        92     12.25
05/21 12:00      0.01     28.55     28.23     22888     61.77      6.95      7.29        89     12.25
05/21 13:00      0.01     28.78     28.36     23978     61.75      6.88      7.25        87     12.33
05/21 14:00      0.00     29.05     28.82     25312     61.86      6.72      7.21        87     12.41
05/21 15:00      0.00     29.26     28.98     26390     61.99      6.61      7.18        87     12.81
05/21 16:00      0.00     29.51     29.13     28113     62.10      6.55      7.16        87     12.97
05/21 17:00      0.00     29.77     29.52     30089     62.20      6.50      7.16        87     12.89
05/21 18:00      0.00     30.09     29.74     33733     62.29      6.49      7.17        88     12.73
05/21 19:00      0.00     30.42     29.95     38387     62.35      6.49      7.17        89     12.65
05/21 20:00      0.00     30.69     30.36     43057     62.35      6.50      7.19        90     12.57
05/21 21:00      0.00     30.95     30.57     48240     62.31      6.51      7.21        90     12.49
05/21 22:00      0.00     31.15     30.82     52636     62.20      6.55      7.23        91     12.41
05/21 23:00      0.00     31.25     30.94     54974     62.10      6.59      7.26        92     12.41